createdAt,value
2017-07-15T00:00:34.595Z,54.22
2017-07-15T00:01:15.111Z,54.13
2017-07-15T00:01:55.567Z,54.25
2017-07-15T00:02:36.037Z,54.35
2017-07-15T00:03:16.480Z,54.25
2017-07-15T00:03:56.930Z,54.13
2017-07-15T00:04:37.383Z,54.25
2017-07-15T00:05:17.833Z,54.25
2017-07-15T00:05:58.291Z,54.25
2017-07-15T00:06:38.753Z,54.15
2017-07-15T00:07:19.208Z,53.77
2017-07-15T00:07:59.704Z,54.35
2017-07-15T00:08:40.174Z,54.25
2017-07-15T00:09:20.615Z,54.15
2017-07-15T00:10:01.073Z,53.86
2017-07-15T00:10:41.512Z,53.96
2017-07-15T00:11:21.962Z,53.96
2017-07-15T00:12:02.419Z,53.96
2017-07-15T00:12:42.872Z,53.96
2017-07-15T00:13:23.329Z,53.96
2017-07-15T00:14:03.785Z,54.15
2017-07-15T00:14:45.020Z,53.96
2017-07-15T00:15:25.478Z,54.15
2017-07-15T00:16:05.934Z,53.96
2017-07-15T00:16:46.387Z,53.96
2017-07-15T00:17:26.845Z,53.96
2017-07-15T00:18:07.295Z,53.86
2017-07-15T00:18:47.753Z,54.15
2017-07-15T00:19:28.210Z,54.15
2017-07-15T00:20:08.668Z,53.86
2017-07-15T00:20:49.126Z,53.77
2017-07-15T00:21:29.575Z,54.15
2017-07-15T00:22:10.033Z,53.86
2017-07-15T00:22:50.496Z,53.64
2017-07-15T00:23:30.949Z,53.93
2017-07-15T00:24:11.409Z,53.67
2017-07-15T00:24:51.867Z,53.67
2017-07-15T00:25:32.322Z,53.67
2017-07-15T00:26:12.772Z,53.96
2017-07-15T00:26:53.219Z,53.74
2017-07-15T00:27:33.678Z,53.86
2017-07-15T00:28:14.136Z,53.77
2017-07-15T00:28:54.611Z,54.15
2017-07-15T00:29:35.065Z,53.96
2017-07-15T00:30:15.517Z,53.96
2017-07-15T00:30:55.971Z,54.05
2017-07-15T00:31:36.426Z,53.77
2017-07-15T00:32:16.887Z,54.05
2017-07-15T00:32:57.335Z,54.15
2017-07-15T00:33:37.791Z,54.15
2017-07-15T00:34:18.243Z,54.03
2017-07-15T00:34:58.694Z,54.13
2017-07-15T00:35:39.158Z,54.03
2017-07-15T00:36:19.611Z,54.05
2017-07-15T00:37:00.067Z,54.05
2017-07-15T00:37:40.517Z,54.15
2017-07-15T00:38:20.978Z,54.15
2017-07-15T00:39:01.434Z,54.15
2017-07-15T00:39:41.891Z,54.25
2017-07-15T00:40:22.349Z,54.25
2017-07-15T00:41:02.795Z,54.35
2017-07-15T00:41:43.261Z,54.35
2017-07-15T00:42:23.717Z,54.13
2017-07-15T00:43:04.177Z,53.96
2017-07-15T00:43:44.620Z,54.15
2017-07-15T00:44:25.076Z,54.15
2017-07-15T00:45:05.533Z,53.96
2017-07-15T00:45:46.056Z,53.96
2017-07-15T00:46:26.515Z,54.15
2017-07-15T00:47:06.962Z,53.96
2017-07-15T00:47:47.417Z,54.32
2017-07-15T00:48:27.875Z,54.05
2017-07-15T00:49:08.324Z,54.15
2017-07-15T00:49:48.783Z,54.44
2017-07-15T00:50:29.238Z,54.35
2017-07-15T00:51:09.698Z,54.25
2017-07-15T00:51:50.158Z,54.25
2017-07-15T00:52:30.617Z,54.41
2017-07-15T00:53:11.066Z,54.25
2017-07-15T00:53:51.521Z,54.44
2017-07-15T00:54:31.982Z,54.35
2017-07-15T00:55:12.439Z,54.03
2017-07-15T00:55:52.895Z,54.25
2017-07-15T00:56:33.350Z,54.03
2017-07-15T00:57:13.805Z,54.22
2017-07-15T00:57:54.263Z,54.35
2017-07-15T00:58:34.724Z,54.15
2017-07-15T00:59:15.176Z,54.22
2017-07-15T00:59:55.632Z,54.15
2017-07-15T01:00:36.086Z,54.25
2017-07-15T01:01:16.543Z,54.15
2017-07-15T01:01:56.991Z,54.15
2017-07-15T01:02:37.444Z,54.25
2017-07-15T01:03:17.902Z,54.25
2017-07-15T01:03:58.353Z,54.22
2017-07-15T01:04:38.805Z,54.35
2017-07-15T01:05:19.249Z,54.22
2017-07-15T01:05:59.781Z,54.22
2017-07-15T01:06:40.277Z,54.32
2017-07-15T01:07:20.729Z,54.15
2017-07-15T01:08:01.194Z,54.13
2017-07-15T01:08:41.651Z,54.22
2017-07-15T01:09:22.097Z,54.35
2017-07-15T01:10:02.684Z,54.25
2017-07-15T01:10:43.142Z,54.22
2017-07-15T01:11:23.603Z,54.35
2017-07-15T01:12:04.038Z,54.44
2017-07-15T01:12:44.499Z,54.25
2017-07-15T01:13:24.956Z,54.41
2017-07-15T01:14:05.411Z,54.44
2017-07-15T01:14:45.869Z,54.44
2017-07-15T01:15:26.325Z,54.22
2017-07-15T01:16:06.787Z,54.15
2017-07-15T01:16:47.248Z,54.35
2017-07-15T01:17:27.690Z,54.13
2017-07-15T01:18:08.143Z,54.25
2017-07-15T01:18:48.597Z,54.25
2017-07-15T01:19:29.054Z,54.41
2017-07-15T01:20:09.506Z,54.15
2017-07-15T01:20:49.962Z,54.25
2017-07-15T01:21:30.413Z,54.15
2017-07-15T01:22:10.864Z,54.15
2017-07-15T01:22:51.306Z,54.22
2017-07-15T01:23:31.761Z,54.32
2017-07-15T01:24:12.215Z,54.15
2017-07-15T01:24:52.673Z,54.35
2017-07-15T01:25:33.134Z,54.22
2017-07-15T01:26:13.585Z,54.35
2017-07-15T01:26:54.032Z,54.22
2017-07-15T01:27:34.509Z,54.35
2017-07-15T01:29:22.265Z,54.25
2017-07-15T01:30:02.721Z,54.25
2017-07-15T01:30:43.169Z,54.22
2017-07-15T01:31:23.652Z,54.22
2017-07-15T01:32:04.074Z,54.22
2017-07-15T01:32:44.515Z,54.15
2017-07-15T01:33:24.969Z,54.25
2017-07-15T01:34:05.414Z,54.22
2017-07-15T01:34:45.882Z,54.35
2017-07-15T01:35:26.327Z,54.61
2017-07-15T01:36:06.782Z,54.22
2017-07-15T01:36:47.227Z,54.15
2017-07-15T01:37:27.670Z,54.35
2017-07-15T01:38:08.117Z,54.32
2017-07-15T01:38:48.575Z,54.15
2017-07-15T01:39:29.029Z,54.15
2017-07-15T01:40:09.487Z,54.41
2017-07-15T01:40:49.942Z,54.32
2017-07-15T01:41:30.401Z,54.15
2017-07-15T01:42:10.869Z,54.35
2017-07-15T01:42:51.322Z,54.25
2017-07-15T01:43:31.787Z,54.32
2017-07-15T01:44:12.238Z,54.41
2017-07-15T01:44:52.688Z,54.13
2017-07-15T01:45:33.144Z,54.41
2017-07-15T01:46:13.590Z,54.51
2017-07-15T01:46:54.043Z,54.35
2017-07-15T01:47:34.510Z,54.51
2017-07-15T01:48:14.976Z,54.51
2017-07-15T01:48:55.431Z,54.61
2017-07-15T01:49:35.883Z,54.61
2017-07-15T01:50:16.342Z,54.61
2017-07-15T01:50:56.797Z,54.32
2017-07-15T01:51:37.253Z,54.71
2017-07-15T01:52:17.709Z,54.51
2017-07-15T01:52:58.167Z,54.41
2017-07-15T01:53:38.625Z,54.32
2017-07-15T01:54:19.080Z,54.32
2017-07-15T01:54:59.535Z,54.99
2017-07-15T01:55:39.993Z,54.32
2017-07-15T01:56:20.442Z,54.44
2017-07-15T01:57:00.901Z,55.02
2017-07-15T01:57:41.359Z,54.99
2017-07-15T01:58:21.817Z,54.9
2017-07-15T01:59:02.270Z,55.19
2017-07-15T01:59:42.735Z,54.9
2017-07-15T02:00:23.193Z,54.9
2017-07-15T02:01:03.646Z,54.99
2017-07-15T02:01:44.103Z,54.9
2017-07-15T02:02:24.561Z,54.99
2017-07-15T02:03:05.024Z,54.9
2017-07-15T02:03:45.478Z,54.9
2017-07-15T02:04:25.941Z,54.99
2017-07-15T02:05:06.392Z,54.8
2017-07-15T02:05:46.850Z,54.99
2017-07-15T02:06:27.340Z,54.99
2017-07-15T02:07:07.763Z,54.99
2017-07-15T02:07:48.236Z,55.09
2017-07-15T02:08:28.693Z,54.99
2017-07-15T02:09:09.145Z,55.09
2017-07-15T02:09:49.616Z,55.09
2017-07-15T02:10:30.064Z,54.9
2017-07-15T02:11:10.527Z,54.99
2017-07-15T02:11:50.983Z,54.9
2017-07-15T02:12:31.442Z,54.99
2017-07-15T02:13:11.904Z,54.99
2017-07-15T02:13:52.358Z,54.9
2017-07-15T02:14:32.814Z,54.99
2017-07-15T02:15:13.268Z,54.8
2017-07-15T02:15:53.719Z,54.9
2017-07-15T02:16:34.175Z,55.09
2017-07-15T02:17:14.637Z,55.09
2017-07-15T02:17:55.090Z,55.09
2017-07-15T02:18:35.546Z,55.09
2017-07-15T02:19:16.000Z,54.9
2017-07-15T02:19:56.458Z,54.9
2017-07-15T02:20:36.920Z,54.99
2017-07-15T02:21:17.374Z,54.8
2017-07-15T02:21:57.826Z,55.09
2017-07-15T02:22:38.284Z,54.9
2017-07-15T02:23:18.741Z,54.99
2017-07-15T02:23:59.200Z,54.9
2017-07-15T02:24:39.702Z,54.8
2017-07-15T02:25:20.164Z,54.71
2017-07-15T02:26:00.616Z,54.99
2017-07-15T02:26:41.075Z,54.8
2017-07-15T02:27:21.536Z,54.9
2017-07-15T02:28:01.992Z,54.8
2017-07-15T02:28:42.452Z,54.8
2017-07-15T02:29:22.910Z,54.9
2017-07-15T02:30:03.366Z,54.9
2017-07-15T02:30:43.824Z,54.9
2017-07-15T02:31:24.287Z,54.8
2017-07-15T02:32:04.739Z,55.09
2017-07-15T02:32:45.199Z,54.99
2017-07-15T02:33:25.653Z,54.9
2017-07-15T02:34:06.109Z,55.09
2017-07-15T02:34:46.568Z,55.09
2017-07-15T02:35:27.026Z,54.99
2017-07-15T02:36:07.500Z,54.8
2017-07-15T02:36:47.950Z,54.99
2017-07-15T02:37:28.403Z,54.8
2017-07-15T02:38:08.862Z,54.99
2017-07-15T02:38:49.319Z,54.71
2017-07-15T02:39:29.778Z,54.9
2017-07-15T02:40:10.245Z,54.61
2017-07-15T02:40:50.685Z,54.9
2017-07-15T02:41:31.137Z,54.9
2017-07-15T02:42:11.592Z,54.71
2017-07-15T02:42:52.047Z,54.71
2017-07-15T02:43:32.499Z,54.61
2017-07-15T02:44:12.966Z,54.71
2017-07-15T02:44:53.423Z,54.71
2017-07-15T02:45:33.880Z,54.61
2017-07-15T02:46:14.338Z,54.61
2017-07-15T02:46:54.801Z,54.71
2017-07-15T02:47:35.259Z,54.99
2017-07-15T02:48:15.718Z,54.71
2017-07-15T02:48:56.175Z,54.99
2017-07-15T02:49:36.640Z,54.68
2017-07-15T02:50:17.097Z,54.61
2017-07-15T02:50:57.553Z,54.71
2017-07-15T02:51:38.010Z,54.8
2017-07-15T02:52:18.462Z,54.8
2017-07-15T02:52:58.918Z,54.71
2017-07-15T02:53:39.371Z,54.8
2017-07-15T02:54:19.833Z,55.19
2017-07-15T02:55:00.277Z,54.8
2017-07-15T02:55:40.725Z,54.8
2017-07-15T02:56:21.180Z,54.99
2017-07-15T02:57:01.621Z,54.71
2017-07-15T02:57:42.077Z,55.19
2017-07-15T02:58:22.534Z,54.99
2017-07-15T02:59:02.994Z,55.19
2017-07-15T02:59:43.454Z,55.19
2017-07-15T03:00:23.915Z,55.19
2017-07-15T03:01:04.363Z,54.99
2017-07-15T03:01:44.820Z,54.9
2017-07-15T03:02:25.286Z,55.19
2017-07-15T03:03:05.746Z,55.38
2017-07-15T03:03:46.196Z,54.8
2017-07-15T03:04:26.655Z,55.29
2017-07-15T03:05:07.113Z,54.9
2017-07-15T03:05:47.589Z,54.99
2017-07-15T03:06:28.024Z,55.19
2017-07-15T03:07:08.493Z,54.99
2017-07-15T03:07:48.943Z,54.99
2017-07-15T03:08:29.398Z,55.09
2017-07-15T03:09:09.861Z,54.97
2017-07-15T03:09:50.319Z,54.99
2017-07-15T03:10:30.769Z,55.09
2017-07-15T03:11:11.224Z,54.99
2017-07-15T03:11:51.679Z,55.07
2017-07-15T03:12:32.134Z,54.97
2017-07-15T03:13:12.592Z,54.99
2017-07-15T03:13:53.047Z,54.99
2017-07-15T03:14:33.501Z,55.47
2017-07-15T03:15:13.961Z,54.99
2017-07-15T03:15:54.414Z,55.09
2017-07-15T03:16:34.878Z,54.99
2017-07-15T03:17:15.333Z,55.47
2017-07-15T03:17:55.792Z,55.47
2017-07-15T03:18:36.254Z,55.47
2017-07-15T03:19:16.711Z,55.09
2017-07-15T03:19:57.161Z,55.19
2017-07-15T03:20:37.609Z,55.09
2017-07-15T03:21:18.158Z,55.29
2017-07-15T03:21:58.604Z,55.38
2017-07-15T03:22:39.052Z,55.29
2017-07-15T03:23:19.505Z,55.38
2017-07-15T03:23:59.961Z,55.38
2017-07-15T03:24:40.416Z,55.47
2017-07-15T03:25:20.872Z,55.57
2017-07-15T03:26:01.326Z,55.57
2017-07-15T03:26:41.786Z,55.57
2017-07-15T03:27:22.235Z,55.57
2017-07-15T03:28:02.690Z,55.26
2017-07-15T03:28:43.147Z,55.29
2017-07-15T03:29:23.708Z,55.26
2017-07-15T03:30:04.169Z,55.29
2017-07-15T03:30:44.635Z,55.38
2017-07-15T03:31:25.096Z,55.09
2017-07-15T03:32:05.555Z,55.29
2017-07-15T03:32:46.006Z,55.47
2017-07-15T03:33:26.462Z,55.38
2017-07-15T03:34:06.913Z,55.38
2017-07-15T03:34:47.373Z,55.29
2017-07-15T03:35:27.823Z,55.47
2017-07-15T03:36:08.275Z,55.29
2017-07-15T03:36:48.827Z,55.29
2017-07-15T03:37:29.179Z,55.29
2017-07-15T03:38:09.634Z,55.65
2017-07-15T03:38:50.087Z,55.29
2017-07-15T03:39:30.547Z,55.65
2017-07-15T03:40:11.002Z,55.57
2017-07-15T03:40:51.460Z,55.67
2017-07-15T03:41:31.923Z,55.16
2017-07-15T03:42:12.392Z,55.16
2017-07-15T03:42:52.852Z,55.55
2017-07-15T03:43:33.304Z,55.09
2017-07-15T03:44:13.760Z,55.35
2017-07-15T03:44:54.215Z,55.35
2017-07-15T03:45:34.707Z,55.65
2017-07-15T03:46:15.166Z,55.35
2017-07-15T03:46:55.627Z,55.35
2017-07-15T03:47:36.075Z,55.26
2017-07-15T03:48:16.544Z,55.35
2017-07-15T03:48:57.004Z,55.45
2017-07-15T03:49:37.447Z,55.35
2017-07-15T03:50:17.905Z,55.26
2017-07-15T03:50:58.394Z,55.35
2017-07-15T03:51:38.819Z,55.26
2017-07-15T03:52:19.273Z,55.26
2017-07-15T03:52:59.733Z,55.26
2017-07-15T03:53:40.185Z,55.26
2017-07-15T03:54:20.640Z,55.29
2017-07-15T03:55:01.099Z,55.07
2017-07-15T03:55:41.539Z,55.45
2017-07-15T03:56:21.985Z,55.26
2017-07-15T03:57:02.434Z,55.26
2017-07-15T03:57:42.892Z,55.65
2017-07-15T03:58:23.345Z,55.65
2017-07-15T03:59:03.792Z,55.26
2017-07-15T03:59:44.260Z,55.26
2017-07-15T04:00:24.710Z,55.26
2017-07-15T04:01:05.176Z,55.65
2017-07-15T04:01:45.639Z,55.65
2017-07-15T04:02:26.098Z,55.35
2017-07-15T04:03:06.547Z,55.26
2017-07-15T04:03:47.003Z,55.35
2017-07-15T04:04:27.461Z,55.16
2017-07-15T04:05:07.908Z,55.55
2017-07-15T04:05:48.346Z,55.55
2017-07-15T04:06:28.798Z,55.55
2017-07-15T04:07:09.266Z,55.35
2017-07-15T04:07:49.711Z,55.19
2017-07-15T04:08:30.434Z,55.35
2017-07-15T04:09:10.909Z,55.35
2017-07-15T04:09:51.366Z,55.74
2017-07-15T04:10:31.824Z,55.55
2017-07-15T04:11:12.287Z,55.35
2017-07-15T04:11:52.733Z,55.45
2017-07-15T04:12:33.190Z,55.45
2017-07-15T04:13:13.636Z,55.45
2017-07-15T04:13:54.092Z,55.45
2017-07-15T04:14:34.556Z,55.45
2017-07-15T04:15:14.973Z,55.45
2017-07-15T04:15:55.424Z,55.47
2017-07-15T04:16:35.879Z,55.45
2017-07-15T04:17:16.339Z,55.35
2017-07-15T04:17:56.796Z,55.45
2017-07-15T04:18:37.243Z,55.26
2017-07-15T04:19:17.707Z,55.26
2017-07-15T04:19:58.160Z,55.45
2017-07-15T04:20:38.614Z,55.55
2017-07-15T04:21:19.067Z,55.45
2017-07-15T04:21:59.537Z,55.26
2017-07-15T04:22:39.976Z,55.45
2017-07-15T04:23:20.426Z,55.45
2017-07-15T04:24:00.880Z,55.45
2017-07-15T04:24:41.347Z,55.26
2017-07-15T04:25:21.803Z,55.35
2017-07-15T04:26:02.245Z,55.29
2017-07-15T04:26:42.712Z,55.26
2017-07-15T04:27:23.173Z,55.38
2017-07-15T04:28:03.638Z,55.45
2017-07-15T04:28:44.081Z,55.45
2017-07-15T04:29:24.532Z,55.26
2017-07-15T04:30:04.987Z,55.47
2017-07-15T04:30:45.448Z,55.35
2017-07-15T04:31:25.884Z,55.47
2017-07-15T04:32:06.341Z,55.35
2017-07-15T04:32:46.798Z,55.47
2017-07-15T04:33:27.249Z,55.45
2017-07-15T04:34:07.702Z,55.47
2017-07-15T04:34:48.157Z,55.47
2017-07-15T04:35:28.621Z,55.26
2017-07-15T04:36:09.102Z,55.07
2017-07-15T04:36:49.538Z,55.74
2017-07-15T04:37:29.999Z,55.67
2017-07-15T04:38:10.449Z,55.35
2017-07-15T04:38:50.910Z,55.55
2017-07-15T04:39:31.369Z,55.65
2017-07-15T04:40:11.829Z,55.65
2017-07-15T04:40:52.296Z,55.26
2017-07-15T04:41:32.754Z,55.29
2017-07-15T04:42:13.214Z,55.29
2017-07-15T04:42:53.670Z,55.47
2017-07-15T04:43:34.121Z,55.38
2017-07-15T04:44:14.576Z,55.29
2017-07-15T04:44:55.050Z,55.19
2017-07-15T04:45:35.506Z,55.29
2017-07-15T04:46:15.951Z,55.26
2017-07-15T04:46:56.408Z,55.47
2017-07-15T04:47:36.865Z,55.57
2017-07-15T04:48:17.327Z,55.57
2017-07-15T04:48:57.796Z,55.38
2017-07-15T04:49:38.248Z,55.35
2017-07-15T04:50:18.709Z,55.29
2017-07-15T04:50:59.156Z,55.29
2017-07-15T04:51:39.986Z,55.38
2017-07-15T04:52:20.448Z,55.09
2017-07-15T04:53:00.905Z,55.47
2017-07-15T04:53:41.365Z,55.38
2017-07-15T04:54:21.830Z,55.29
2017-07-15T04:55:02.289Z,55.09
2017-07-15T04:55:42.751Z,55.47
2017-07-15T04:56:23.218Z,55.47
2017-07-15T04:57:03.662Z,55.09
2017-07-15T04:57:44.118Z,55.29
2017-07-15T04:58:24.575Z,55.09
2017-07-15T04:59:05.040Z,55.09
2017-07-15T04:59:45.493Z,54.99
2017-07-15T05:00:26.012Z,55.09
2017-07-15T05:01:06.463Z,55.19
2017-07-15T05:01:46.941Z,54.8
2017-07-15T05:02:27.375Z,54.9
2017-07-15T05:03:07.831Z,54.8
2017-07-15T05:03:48.290Z,54.71
2017-07-15T05:04:28.748Z,54.71
2017-07-15T05:05:09.209Z,54.61
2017-07-15T05:05:49.660Z,54.71
2017-07-15T05:06:30.105Z,54.9
2017-07-15T05:07:10.561Z,54.8
2017-07-15T05:07:51.026Z,54.8
2017-07-15T05:08:31.485Z,55.09
2017-07-15T05:09:11.942Z,54.99
2017-07-15T05:09:52.402Z,54.99
2017-07-15T05:10:32.909Z,54.8
2017-07-15T05:11:13.354Z,54.8
2017-07-15T05:11:53.836Z,55.09
2017-07-15T05:12:34.275Z,54.8
2017-07-15T05:13:14.734Z,54.9
2017-07-15T05:13:55.195Z,54.99
2017-07-15T05:14:35.654Z,54.87
2017-07-15T05:15:16.155Z,54.87
2017-07-15T05:15:56.602Z,55.07
2017-07-15T05:16:37.052Z,54.87
2017-07-15T05:17:17.506Z,55.07
2017-07-15T05:17:57.968Z,54.77
2017-07-15T05:18:38.422Z,54.97
2017-07-15T05:19:18.898Z,54.99
2017-07-15T05:19:59.339Z,55.07
2017-07-15T05:20:39.798Z,54.8
2017-07-15T05:21:20.254Z,54.97
2017-07-15T05:22:00.705Z,54.9
2017-07-15T05:22:41.170Z,54.9
2017-07-15T05:23:21.630Z,54.9
2017-07-15T05:24:02.091Z,54.77
2017-07-15T05:24:42.551Z,54.77
2017-07-15T05:25:22.999Z,54.8
2017-07-15T05:26:03.453Z,54.99
2017-07-15T05:26:43.907Z,54.9
2017-07-15T05:27:24.368Z,54.99
2017-07-15T05:28:04.833Z,55.19
2017-07-15T05:28:45.294Z,55.09
2017-07-15T05:29:25.750Z,54.87
2017-07-15T05:30:06.210Z,54.99
2017-07-15T05:30:46.664Z,54.9
2017-07-15T05:31:27.118Z,54.99
2017-07-15T05:32:07.577Z,55.09
2017-07-15T05:32:48.034Z,54.8
2017-07-15T05:33:28.493Z,55.19
2017-07-15T05:34:08.947Z,55.09
2017-07-15T05:34:49.408Z,54.61
2017-07-15T05:35:29.851Z,54.41
2017-07-15T05:36:10.310Z,54.99
2017-07-15T05:36:50.772Z,54.99
2017-07-15T05:37:31.230Z,54.97
2017-07-15T05:38:11.687Z,54.97
2017-07-15T05:38:52.142Z,54.61
2017-07-15T05:39:32.604Z,54.99
2017-07-15T05:40:13.048Z,54.41
2017-07-15T05:40:53.524Z,54.9
2017-07-15T05:41:33.958Z,54.99
2017-07-15T05:42:14.415Z,54.41
2017-07-15T05:42:54.896Z,54.9
2017-07-15T05:43:35.351Z,54.51
2017-07-15T05:44:15.806Z,54.41
2017-07-15T05:44:56.262Z,54.61
2017-07-15T05:45:36.720Z,54.71
2017-07-15T05:46:17.178Z,54.61
2017-07-15T05:46:57.640Z,54.61
2017-07-15T05:47:38.099Z,54.61
2017-07-15T05:48:18.558Z,54.51
2017-07-15T05:48:59.020Z,54.32
2017-07-15T05:49:39.481Z,54.32
2017-07-15T05:50:19.938Z,54.51
2017-07-15T05:51:00.394Z,54.13
2017-07-15T05:51:40.852Z,53.93
2017-07-15T05:52:21.316Z,54.32
2017-07-15T05:53:01.765Z,54.22
2017-07-15T05:53:42.219Z,54.51
2017-07-15T05:54:22.676Z,54.22
2017-07-15T05:55:03.140Z,54.32
2017-07-15T05:55:43.595Z,54.32
2017-07-15T05:56:24.052Z,54.03
2017-07-15T05:57:04.513Z,54.41
2017-07-15T05:57:44.963Z,54.41
2017-07-15T05:58:25.406Z,54.32
2017-07-15T05:59:05.857Z,54.22
2017-07-15T05:59:46.311Z,54.32
2017-07-15T06:00:26.767Z,54.22
2017-07-15T06:01:07.226Z,54.41
2017-07-15T06:01:47.681Z,54.41
2017-07-15T06:02:28.136Z,54.41
2017-07-15T06:03:08.598Z,54.22
2017-07-15T06:03:49.075Z,54.32
2017-07-15T06:04:29.508Z,54.41
2017-07-15T06:05:09.962Z,54.22
2017-07-15T06:05:50.420Z,54.41
2017-07-15T06:06:30.873Z,54.32
2017-07-15T06:07:11.327Z,54.32
2017-07-15T06:07:51.781Z,54.22
2017-07-15T06:08:32.239Z,54.32
2017-07-15T06:09:12.687Z,54.22
2017-07-15T06:09:53.142Z,54.22
2017-07-15T06:10:33.592Z,54.22
2017-07-15T06:11:14.040Z,54.22
2017-07-15T06:11:54.497Z,54.41
2017-07-15T06:12:34.989Z,54.22
2017-07-15T06:13:15.445Z,54.32
2017-07-15T06:13:55.902Z,54.51
2017-07-15T06:14:36.362Z,54.41
2017-07-15T06:15:16.820Z,54.32
2017-07-15T06:15:57.270Z,54.03
2017-07-15T06:16:37.718Z,54.22
2017-07-15T06:17:18.174Z,54.32
2017-07-15T06:17:58.632Z,54.13
2017-07-15T06:18:39.087Z,54.13
2017-07-15T06:19:19.533Z,54.25
2017-07-15T06:19:59.969Z,54.25
2017-07-15T06:20:40.428Z,54.05
2017-07-15T06:21:20.887Z,54.15
2017-07-15T06:22:01.336Z,54.15
2017-07-15T06:22:41.789Z,54.35
2017-07-15T06:23:22.241Z,53.86
2017-07-15T06:24:02.699Z,53.86
2017-07-15T06:24:43.154Z,53.67
2017-07-15T06:25:23.606Z,53.67
2017-07-15T06:26:04.067Z,53.47
2017-07-15T06:26:44.550Z,53.67
2017-07-15T06:27:24.984Z,53.67
2017-07-15T06:28:05.455Z,53.67
2017-07-15T06:28:45.907Z,53.67
2017-07-15T06:29:26.368Z,53.77
2017-07-15T06:30:06.831Z,53.96
2017-07-15T06:30:47.324Z,53.38
2017-07-15T06:31:27.782Z,53.38
2017-07-15T06:32:08.242Z,53.38
2017-07-15T06:32:48.700Z,53.19
2017-07-15T06:33:29.160Z,52.89
2017-07-15T06:34:09.617Z,53.11
2017-07-15T06:34:50.071Z,52.8
2017-07-15T06:35:30.532Z,52.8
2017-07-15T06:36:10.991Z,53.31
2017-07-15T06:36:51.453Z,53.31
2017-07-15T06:37:31.911Z,53.41
2017-07-15T06:38:12.367Z,53.41
2017-07-15T06:38:54.501Z,52.63
2017-07-15T06:39:34.993Z,52.82
2017-07-15T06:40:15.407Z,52.53
2017-07-15T06:40:55.869Z,52.73
2017-07-15T06:41:36.333Z,52.92
2017-07-15T06:42:17.563Z,52.63
2017-07-15T06:42:58.025Z,52.73
2017-07-15T06:43:38.487Z,52.63
2017-07-15T06:44:18.947Z,53.02
2017-07-15T06:44:59.407Z,53.02
2017-07-15T06:45:39.883Z,52.92
2017-07-15T06:46:20.326Z,52.82
2017-07-15T06:47:00.782Z,52.63
2017-07-15T06:47:41.241Z,52.53
2017-07-15T06:48:21.697Z,52.53
2017-07-15T06:49:02.161Z,52.53
2017-07-15T06:49:42.617Z,52.44
2017-07-15T06:50:23.074Z,52.44
2017-07-15T06:51:03.536Z,52.44
2017-07-15T06:51:43.990Z,52.34
2017-07-15T06:52:24.459Z,52.63
2017-07-15T06:53:04.899Z,52.82
2017-07-15T06:53:45.354Z,52.63
2017-07-15T06:54:25.812Z,52.53
2017-07-15T06:55:06.268Z,52.34
2017-07-15T06:55:46.727Z,52.63
2017-07-15T06:56:27.199Z,52.24
2017-07-15T06:57:07.654Z,52.34
2017-07-15T06:57:48.105Z,52.34
2017-07-15T06:58:28.564Z,52.63
2017-07-15T06:59:09.021Z,52.53
2017-07-15T06:59:49.479Z,52.34
2017-07-15T07:00:29.936Z,52.63
2017-07-15T07:01:10.396Z,52.63
2017-07-15T07:01:50.844Z,52.24
2017-07-15T07:02:31.313Z,52.63
2017-07-15T07:03:11.770Z,52.73
2017-07-15T07:03:52.227Z,52.63
2017-07-15T07:04:32.684Z,52.05
2017-07-15T07:05:13.143Z,52.24
2017-07-15T07:05:53.602Z,52.24
2017-07-15T07:06:34.055Z,52.24
2017-07-15T07:07:14.538Z,52.24
2017-07-15T07:07:55.027Z,52.63
2017-07-15T07:08:35.480Z,52.34
2017-07-15T07:09:15.950Z,52.12
2017-07-15T07:09:56.404Z,52.31
2017-07-15T07:10:36.865Z,52.34
2017-07-15T07:11:17.321Z,52.34
2017-07-15T07:11:57.786Z,52.41
2017-07-15T07:12:38.236Z,52.31
2017-07-15T07:13:18.691Z,52.31
2017-07-15T07:13:59.144Z,52.12
2017-07-15T07:14:39.605Z,52.12
2017-07-15T07:15:20.062Z,52.31
2017-07-15T07:16:00.523Z,52.12
2017-07-15T07:16:40.981Z,52.51
2017-07-15T07:17:21.446Z,52.51
2017-07-15T07:18:01.910Z,52.51
2017-07-15T07:18:42.366Z,52.51
2017-07-15T07:19:22.824Z,52.31
2017-07-15T07:20:03.285Z,52.22
2017-07-15T07:20:43.751Z,52.22
2017-07-15T07:21:24.241Z,52.22
2017-07-15T07:22:04.667Z,52.14
2017-07-15T07:22:45.125Z,52.12
2017-07-15T07:23:25.584Z,52.22
2017-07-15T07:24:06.039Z,52.31
2017-07-15T07:24:46.497Z,52.34
2017-07-15T07:25:26.960Z,51.95
2017-07-15T07:26:07.421Z,51.93
2017-07-15T07:26:47.880Z,51.64
2017-07-15T07:27:28.367Z,52.12
2017-07-15T07:28:08.830Z,52.05
2017-07-15T07:28:49.285Z,51.44
2017-07-15T07:29:29.741Z,51.54
2017-07-15T07:30:10.203Z,51.64
2017-07-15T07:30:50.658Z,51.54
2017-07-15T07:31:31.119Z,51.73
2017-07-15T07:32:11.716Z,51.86
2017-07-15T07:32:52.161Z,51.83
2017-07-15T07:33:32.613Z,51.86
2017-07-15T07:34:13.071Z,51.54
2017-07-15T07:34:53.524Z,52.02
2017-07-15T07:35:33.979Z,51.73
2017-07-15T07:36:14.427Z,51.86
2017-07-15T07:36:54.885Z,51.76
2017-07-15T07:37:35.343Z,51.64
2017-07-15T07:38:15.801Z,51.44
2017-07-15T07:38:56.259Z,51.83
2017-07-15T07:39:36.713Z,51.86
2017-07-15T07:40:17.170Z,51.64
2017-07-15T07:40:57.632Z,51.83
2017-07-15T07:41:38.088Z,51.66
2017-07-15T07:42:18.547Z,51.44
2017-07-15T07:42:59.087Z,51.35
2017-07-15T07:43:39.547Z,51.37
2017-07-15T07:44:20.001Z,51.35
2017-07-15T07:45:00.455Z,51.25
2017-07-15T07:45:40.904Z,51.25
2017-07-15T07:46:21.369Z,51.56
2017-07-15T07:47:01.825Z,51.44
2017-07-15T07:47:42.286Z,51.35
2017-07-15T07:48:22.744Z,51.44
2017-07-15T07:49:03.203Z,51.76
2017-07-15T07:49:43.665Z,51.76
2017-07-15T07:50:24.120Z,51.76
2017-07-15T07:51:04.585Z,51.73
2017-07-15T07:51:45.037Z,51.35
2017-07-15T07:52:25.497Z,51.76
2017-07-15T07:53:05.955Z,51.64
2017-07-15T07:53:46.416Z,51.64
2017-07-15T07:54:26.866Z,51.44
2017-07-15T07:55:07.320Z,51.54
2017-07-15T07:55:47.779Z,51.73
2017-07-15T07:56:28.231Z,51.06
2017-07-15T07:57:08.692Z,51.64
2017-07-15T07:57:49.146Z,51.83
2017-07-15T07:58:29.604Z,51.15
2017-07-15T07:59:10.053Z,51.44
2017-07-15T07:59:50.506Z,51.83
2017-07-15T08:00:30.983Z,51.54
2017-07-15T08:01:11.421Z,51.44
2017-07-15T08:01:51.877Z,51.44
2017-07-15T08:02:32.337Z,51.44
2017-07-15T08:03:12.797Z,51.54
2017-07-15T08:03:53.255Z,51.54
2017-07-15T08:04:33.714Z,51.64
2017-07-15T08:05:14.171Z,51.44
2017-07-15T08:05:54.628Z,51.44
2017-07-15T08:06:35.081Z,51.56
2017-07-15T08:07:15.537Z,51.44
2017-07-15T08:07:55.996Z,51.73
2017-07-15T08:08:36.460Z,51.83
2017-07-15T08:09:16.921Z,51.35
2017-07-15T08:09:57.377Z,51.06
2017-07-15T08:10:37.962Z,51.08
2017-07-15T08:11:18.420Z,50.89
2017-07-15T08:11:58.877Z,50.98
2017-07-15T08:12:39.326Z,51.18
2017-07-15T08:13:19.780Z,50.7
2017-07-15T08:14:00.212Z,50.89
2017-07-15T08:14:40.659Z,51.08
2017-07-15T08:15:21.104Z,50.6
2017-07-15T08:16:01.548Z,50.6
2017-07-15T08:16:42.013Z,50.52
2017-07-15T08:17:22.466Z,50.79
2017-07-15T08:18:02.924Z,50.5
2017-07-15T08:18:43.379Z,50.7
2017-07-15T08:19:23.831Z,50.4
2017-07-15T08:20:04.294Z,50.31
2017-07-15T08:20:44.754Z,50.5
2017-07-15T08:21:25.214Z,50.7
2017-07-15T08:22:05.672Z,50.4
2017-07-15T08:22:46.127Z,50.6
2017-07-15T08:23:26.582Z,50.6
2017-07-15T08:24:07.035Z,50.4
2017-07-15T08:24:47.517Z,50.5
2017-07-15T08:25:27.975Z,50.6
2017-07-15T08:26:08.431Z,50.89
2017-07-15T08:26:48.886Z,50.98
2017-07-15T08:27:29.346Z,51.18
2017-07-15T08:28:09.822Z,50.98
2017-07-15T08:28:50.309Z,50.89
2017-07-15T08:29:30.758Z,50.89
2017-07-15T08:30:11.316Z,50.79
2017-07-15T08:32:09.337Z,50.7
2017-07-15T08:32:49.786Z,50.79
2017-07-15T08:33:30.247Z,50.7
2017-07-15T08:34:10.713Z,50.89
2017-07-15T08:34:51.170Z,50.89
2017-07-15T08:35:31.629Z,50.89
2017-07-15T08:36:12.087Z,50.7
2017-07-15T08:36:52.544Z,50.7
2017-07-15T08:37:32.995Z,50.7
2017-07-15T08:38:13.777Z,50.7
2017-07-15T08:40:01.492Z,50.7
2017-07-15T08:40:42.435Z,50.98
2017-07-15T08:41:22.889Z,50.7
2017-07-15T08:43:15.942Z,50.7
2017-07-15T08:43:56.402Z,50.89
2017-07-15T08:44:36.852Z,50.6
2017-07-15T08:45:17.306Z,50.89
2017-07-15T08:45:57.755Z,50.7
2017-07-15T08:46:38.214Z,50.98
2017-07-15T08:47:18.677Z,50.7
2017-07-15T08:47:59.119Z,50.6